createdAt,value
2016-04-23T00:00:41.763Z,43.25
2016-04-23T00:01:24.704Z,43.06
2016-04-23T00:02:07.613Z,43.16
2016-04-23T00:02:50.503Z,43.44
2016-04-23T00:03:33.396Z,42.96
2016-04-23T00:04:16.477Z,42.96
2016-04-23T00:04:59.605Z,42.77
2016-04-23T00:05:42.574Z,42.96
2016-04-23T00:06:25.561Z,43.25
2016-04-23T00:07:08.641Z,42.96
2016-04-23T00:07:51.610Z,43.16
2016-04-23T00:08:34.598Z,43.35
2016-04-23T00:09:17.506Z,43.25
2016-04-23T00:10:00.416Z,42.87
2016-04-23T00:10:43.307Z,43.06
2016-04-23T00:11:26.262Z,43.06
2016-04-23T00:12:09.155Z,43.35
2016-04-23T00:12:52.202Z,43.06
2016-04-23T00:13:35.095Z,43.25
2016-04-23T00:14:17.973Z,42.96
2016-04-23T00:15:00.882Z,43.06
2016-04-23T00:15:43.773Z,43.16
2016-04-23T00:16:26.650Z,42.96
2016-04-23T00:17:09.715Z,42.77
2016-04-23T00:17:52.606Z,43.06
2016-04-23T00:18:35.484Z,42.58
2016-04-23T00:19:18.378Z,42.96
2016-04-23T00:20:01.145Z,42.96
2016-04-23T00:20:44.083Z,42.87
2016-04-23T00:21:27.101Z,42.87
2016-04-23T00:22:10.042Z,43.35
2016-04-23T00:22:52.932Z,43.16
2016-04-23T00:23:35.997Z,42.87
2016-04-23T00:24:18.906Z,43.25
2016-04-23T00:25:01.815Z,43.35
2016-04-23T00:25:44.737Z,42.77
2016-04-23T00:26:27.630Z,42.87
2016-04-23T00:27:10.570Z,42.68
2016-04-23T00:27:53.477Z,42.77
2016-04-23T00:28:36.417Z,43.25
2016-04-23T00:29:19.200Z,42.77
2016-04-23T00:30:02.141Z,43.35
2016-04-23T00:30:45.219Z,42.87
2016-04-23T00:31:28.206Z,42.96
2016-04-23T00:32:11.053Z,43.06
2016-04-23T00:32:54.038Z,43.06
2016-04-23T00:33:36.180Z,42.96
2016-04-23T00:34:19.183Z,43.25
2016-04-23T00:35:01.921Z,43.06
2016-04-23T00:35:44.827Z,42.87
2016-04-23T00:36:27.704Z,43.35
2016-04-23T00:37:10.613Z,43.54
2016-04-23T00:37:53.519Z,43.44
2016-04-23T00:38:36.475Z,43.8
2016-04-23T00:39:19.368Z,43.73
2016-04-23T00:40:02.090Z,43.63
2016-04-23T00:40:44.965Z,44.01
2016-04-23T00:41:27.843Z,43.91
2016-04-23T00:42:10.751Z,44.3
2016-04-23T00:42:53.626Z,44.11
2016-04-23T00:43:36.520Z,44.3
2016-04-23T00:44:19.398Z,43.71
2016-04-23T00:45:02.307Z,43.71
2016-04-23T00:45:45.198Z,44.78
2016-04-23T00:46:28.090Z,44.09
2016-04-23T00:47:10.999Z,44.18
2016-04-23T00:47:53.921Z,44.59
2016-04-23T00:48:36.034Z,44.09
2016-04-23T00:49:18.911Z,44.56
2016-04-23T00:50:01.804Z,44.56
2016-04-23T00:50:44.695Z,44.59
2016-04-23T00:51:27.588Z,44.75
2016-04-23T00:52:10.482Z,44.37
2016-04-23T00:52:53.373Z,44.46
2016-04-23T00:53:36.250Z,44.56
2016-04-23T00:54:19.128Z,44.85
2016-04-23T00:55:01.880Z,44.27
2016-04-23T00:55:44.755Z,44.27
2016-04-23T00:56:27.664Z,44.85
2016-04-23T00:57:10.589Z,45.23
2016-04-23T00:57:53.495Z,44.94
2016-04-23T00:58:36.372Z,45.04
2016-04-23T00:59:19.250Z,44.75
2016-04-23T01:00:02.144Z,44.75
2016-04-23T01:00:45.034Z,44.66
2016-04-23T01:01:27.944Z,44.85
2016-04-23T01:02:10.821Z,45.42
2016-04-23T01:02:53.743Z,45.42
2016-04-23T01:03:36.635Z,45.42
2016-04-23T01:04:19.513Z,44.94
2016-04-23T01:05:02.408Z,45.8
2016-04-23T01:05:45.330Z,45.8
2016-04-23T01:06:28.207Z,45.42
2016-04-23T01:07:11.115Z,45.51
2016-04-23T01:07:54.021Z,45.51
2016-04-23T01:08:36.916Z,45.99
2016-04-23T01:09:19.793Z,44.94
2016-04-23T01:10:02.686Z,45.51
2016-04-23T01:10:45.608Z,45.8
2016-04-23T01:11:28.485Z,45.8
2016-04-23T01:12:11.396Z,45.8
2016-04-23T01:12:54.286Z,45.61
2016-04-23T01:13:37.148Z,45.7
2016-04-23T01:14:20.056Z,45.61
2016-04-23T01:15:02.949Z,45.8
2016-04-23T01:15:45.824Z,45.51
2016-04-23T01:16:28.701Z,45.7
2016-04-23T01:17:11.627Z,45.61
2016-04-23T01:17:54.518Z,45.61
2016-04-23T01:18:37.395Z,45.89
2016-04-23T01:19:20.273Z,45.7
2016-04-23T01:20:02.370Z,45.8
2016-04-23T01:20:45.260Z,45.8
2016-04-23T01:21:28.154Z,45.8
2016-04-23T01:22:11.047Z,45.61
2016-04-23T01:22:53.968Z,45.89
2016-04-23T01:23:36.924Z,45.7
2016-04-23T01:24:19.818Z,45.89
2016-04-23T01:25:02.711Z,45.7
2016-04-23T01:25:45.617Z,45.42
2016-04-23T01:26:28.495Z,45.89
2016-04-23T01:27:11.388Z,45.99
2016-04-23T01:27:54.263Z,45.8
2016-04-23T01:28:37.172Z,45.61
2016-04-23T01:29:20.050Z,46.28
2016-04-23T01:30:02.943Z,45.7
2016-04-23T01:30:45.818Z,46.28
2016-04-23T01:31:28.711Z,46.37
2016-04-23T01:32:11.589Z,45.61
2016-04-23T01:32:54.495Z,45.99
2016-04-23T01:33:37.373Z,45.7
2016-04-23T01:34:20.282Z,45.7
2016-04-23T01:35:03.207Z,45.89
2016-04-23T01:35:46.175Z,45.51
2016-04-23T01:36:29.100Z,45.99
2016-04-23T01:37:12.087Z,45.51
2016-04-23T01:37:55.008Z,45.42
2016-04-23T01:38:37.965Z,45.89
2016-04-23T01:39:20.905Z,45.8
2016-04-23T01:40:03.876Z,45.7
2016-04-23T01:40:46.829Z,45.99
2016-04-23T01:41:29.785Z,46.09
2016-04-23T01:42:12.726Z,45.51
2016-04-23T01:42:55.679Z,45.89
2016-04-23T01:43:38.649Z,45.42
2016-04-23T01:44:21.621Z,46.09
2016-04-23T01:45:04.577Z,45.89
2016-04-23T01:45:47.390Z,45.99
2016-04-23T01:46:30.330Z,46.37
2016-04-23T01:47:13.270Z,46.47
2016-04-23T01:47:56.239Z,46.09
2016-04-23T01:48:39.179Z,46.15
2016-04-23T01:49:22.151Z,46.56
2016-04-23T01:50:05.106Z,46.37
2016-04-23T01:50:48.059Z,46.18
2016-04-23T01:51:31.031Z,46.56
2016-04-23T01:52:14.002Z,46.44
2016-04-23T01:52:56.939Z,47.11
2016-04-23T01:53:39.896Z,47.02
2016-04-23T01:54:22.867Z,47.3
2016-04-23T01:55:05.822Z,47.2
2016-04-23T01:55:48.775Z,47.2
2016-04-23T01:56:32.045Z,46.83
2016-04-23T01:57:15.000Z,47.11
2016-04-23T01:57:57.922Z,46.73
2016-04-23T01:58:40.862Z,46.63
2016-04-23T01:59:23.833Z,47.04
2016-04-23T02:00:06.790Z,47.04
2016-04-23T02:00:49.743Z,47.04
2016-04-23T02:01:32.714Z,46.66
2016-04-23T02:02:15.700Z,46.63
2016-04-23T02:02:58.669Z,46.47
2016-04-23T02:03:41.594Z,47.2
2016-04-23T02:04:24.549Z,46.92
2016-04-23T02:05:07.506Z,46.94
2016-04-23T02:05:50.459Z,47.04
2016-04-23T02:06:33.415Z,47.04
2016-04-23T02:07:16.371Z,47.13
2016-04-23T02:07:59.199Z,46.37
2016-04-23T02:08:42.139Z,46.75
2016-04-23T02:09:25.111Z,47.42
2016-04-23T02:10:08.035Z,47.02
2016-04-23T02:10:50.988Z,46.94
2016-04-23T02:11:33.943Z,46.63
2016-04-23T02:12:16.916Z,46.92
2016-04-23T02:12:59.869Z,46.92
2016-04-23T02:13:42.824Z,46.83
2016-04-23T02:14:25.749Z,46.63
2016-04-23T02:15:08.689Z,47.02
2016-04-23T02:15:51.642Z,47.87
2016-04-23T02:16:34.613Z,47.2
2016-04-23T02:17:17.585Z,47.68
2016-04-23T02:18:00.538Z,47.02
2016-04-23T02:18:43.478Z,47.68
2016-04-23T02:19:26.434Z,47.78
2016-04-23T02:20:09.390Z,47.87
2016-04-23T02:20:52.343Z,47.58
2016-04-23T02:21:35.159Z,47.68
2016-04-23T02:22:17.786Z,47.97
2016-04-23T02:23:00.577Z,47.39
2016-04-23T02:23:43.517Z,47.87
2016-04-23T02:24:26.473Z,47.78
2016-04-23T02:25:09.397Z,47.58
2016-04-23T02:25:52.366Z,47.49
2016-04-23T02:26:35.322Z,47.39
2016-04-23T02:27:18.262Z,48.06
2016-04-23T02:28:01.230Z,47.87
2016-04-23T02:28:44.203Z,47.87
2016-04-23T02:29:27.143Z,47.3
2016-04-23T02:30:10.099Z,47.11
2016-04-23T02:30:53.052Z,47.02
2016-04-23T02:31:36.024Z,47.2
2016-04-23T02:32:18.979Z,47.39
2016-04-23T02:33:01.966Z,47.97
2016-04-23T02:33:44.935Z,47.97
2016-04-23T02:34:27.890Z,47.97
2016-04-23T02:35:10.846Z,47.68
2016-04-23T02:35:53.877Z,47.68
2016-04-23T02:36:36.833Z,47.78
2016-04-23T02:37:19.790Z,47.58
2016-04-23T02:38:02.713Z,47.87
2016-04-23T02:38:45.729Z,48.25
2016-04-23T02:39:28.685Z,48.16
2016-04-23T02:40:11.641Z,48.44
2016-04-23T02:40:54.579Z,47.97
2016-04-23T02:41:37.534Z,47.97
2016-04-23T02:42:20.474Z,48.06
2016-04-23T02:43:03.446Z,48.44
2016-04-23T02:43:46.399Z,48.35
2016-04-23T02:44:29.340Z,48.44
2016-04-23T02:45:12.311Z,48.35
2016-04-23T02:45:55.279Z,48.44
2016-04-23T02:46:38.267Z,48.73
2016-04-23T02:47:21.207Z,48.35
2016-04-23T02:48:04.053Z,48.35
2016-04-23T02:48:46.990Z,48.63
2016-04-23T02:49:29.931Z,47.97
2016-04-23T02:50:12.870Z,47.87
2016-04-23T02:50:55.855Z,48.25
2016-04-23T02:51:38.812Z,48.06
2016-04-23T02:52:21.767Z,48.44
2016-04-23T02:53:04.566Z,48.16
2016-04-23T02:53:47.503Z,48.63
2016-04-23T02:54:30.476Z,48.54
2016-04-23T02:55:13.431Z,48.63
2016-04-23T02:55:56.244Z,48.63
2016-04-23T02:56:39.200Z,47.97
2016-04-23T02:57:22.155Z,48.54
2016-04-23T02:58:05.097Z,47.78
2016-04-23T02:58:47.909Z,47.78
2016-04-23T02:59:30.833Z,48.16
2016-04-23T03:00:13.819Z,48.44
2016-04-23T03:00:56.788Z,48.44
2016-04-23T03:01:39.744Z,48.16
2016-04-23T03:02:22.528Z,48.25
2016-04-23T03:03:05.485Z,47.78
2016-04-23T03:03:48.438Z,47.97
2016-04-23T03:04:31.377Z,48.63
2016-04-23T03:05:14.333Z,48.25
2016-04-23T03:05:57.286Z,48.06
2016-04-23T03:06:40.243Z,48.16
2016-04-23T03:07:23.213Z,47.87
2016-04-23T03:08:06.154Z,48.54
2016-04-23T03:08:49.123Z,48.54
2016-04-23T03:09:32.063Z,48.44
2016-04-23T03:10:15.019Z,48.44
2016-04-23T03:10:57.957Z,48.25
2016-04-23T03:11:40.943Z,48.92
2016-04-23T03:12:23.883Z,48.82
2016-04-23T03:13:06.840Z,49.01
2016-04-23T03:13:49.793Z,49.01
2016-04-23T03:14:32.732Z,49.4
2016-04-23T03:15:15.672Z,48.73
2016-04-23T03:15:58.641Z,49.3
2016-04-23T03:16:41.598Z,48.35
2016-04-23T03:17:24.553Z,48.92
2016-04-23T03:18:07.509Z,48.73
2016-04-23T03:18:50.446Z,48.25
2016-04-23T03:19:33.403Z,48.63
2016-04-23T03:20:16.343Z,48.25
2016-04-23T03:20:59.281Z,48.35
2016-04-23T03:21:42.236Z,48.63
2016-04-23T03:22:25.192Z,48.73
2016-04-23T03:23:08.163Z,48.25
2016-04-23T03:23:51.100Z,48.35
2016-04-23T03:24:34.056Z,48.73
2016-04-23T03:25:16.996Z,48.35
2016-04-23T03:25:59.933Z,48.44
2016-04-23T03:26:42.921Z,48.63
2016-04-23T03:27:25.878Z,49.01
2016-04-23T03:28:08.848Z,48.82
2016-04-23T03:28:51.770Z,49.11
2016-04-23T03:29:34.742Z,49.2
2016-04-23T03:30:17.666Z,48.82
2016-04-23T03:31:00.619Z,48.82
2016-04-23T03:31:43.560Z,49.2
2016-04-23T03:32:26.531Z,49.11
2016-04-23T03:33:09.471Z,49.01
2016-04-23T03:33:52.440Z,48.73
2016-04-23T03:34:35.380Z,49.11
2016-04-23T03:35:18.336Z,49.01
2016-04-23T03:36:01.274Z,49.3
2016-04-23T03:36:44.245Z,49.58
2016-04-23T03:37:27.232Z,49.3
2016-04-23T03:38:10.188Z,49.68
2016-04-23T03:38:53.125Z,49.68
2016-04-23T03:39:36.097Z,49.68
2016-04-23T03:40:19.052Z,50.06
2016-04-23T03:41:01.990Z,49.94
2016-04-23T03:41:44.945Z,50.32
2016-04-23T03:42:27.901Z,50.32
2016-04-23T03:43:10.843Z,50.7
2016-04-23T03:43:53.796Z,50.6
2016-04-23T03:44:36.610Z,50.79
2016-04-23T03:45:19.566Z,51.18
2016-04-23T03:46:02.519Z,50.89
2016-04-23T03:46:45.490Z,50.99
2016-04-23T03:47:28.431Z,50.89
2016-04-23T03:48:11.387Z,50.89
2016-04-23T03:48:54.324Z,50.6
2016-04-23T03:49:37.279Z,51.08
2016-04-23T03:50:20.236Z,50.7
2016-04-23T03:51:03.204Z,50.99
2016-04-23T03:51:46.160Z,50.51
2016-04-23T03:52:29.085Z,50.7
2016-04-23T03:53:12.025Z,50.51
2016-04-23T03:53:54.978Z,50.42
2016-04-23T03:54:37.934Z,50.42
2016-04-23T03:55:20.909Z,50.42
2016-04-23T03:56:03.862Z,50.13
2016-04-23T03:56:46.818Z,50.32
2016-04-23T03:57:29.774Z,50.23
2016-04-23T03:58:12.729Z,50.51
2016-04-23T03:58:55.682Z,50.23
2016-04-23T03:59:38.639Z,50.04
2016-04-23T04:00:21.594Z,50.13
2016-04-23T04:01:04.547Z,50.51
2016-04-23T04:01:47.504Z,50.32
2016-04-23T04:02:30.476Z,50.89
2016-04-23T04:03:13.415Z,50.6
2016-04-23T04:03:56.353Z,50.42
2016-04-23T04:04:39.292Z,50.89
2016-04-23T04:05:22.264Z,50.79
2016-04-23T04:06:05.220Z,51.08
2016-04-23T04:06:48.189Z,51.18
2016-04-23T04:07:30.332Z,51.08
2016-04-23T04:08:13.304Z,50.99
2016-04-23T04:08:56.273Z,50.89
2016-04-23T04:09:39.197Z,51.08
2016-04-23T04:10:22.152Z,50.89
2016-04-23T04:11:05.125Z,50.79
2016-04-23T04:11:48.093Z,50.79
2016-04-23T04:12:31.033Z,50.79
2016-04-23T04:13:13.989Z,50.89
2016-04-23T04:13:56.926Z,51.46
2016-04-23T04:14:39.883Z,51.27
2016-04-23T04:15:22.853Z,51.27
2016-04-23T04:16:05.653Z,50.89
2016-04-23T04:16:48.622Z,51.08
2016-04-23T04:17:31.594Z,51.08
2016-04-23T04:18:14.549Z,51.37
2016-04-23T04:18:57.486Z,51.46
2016-04-23T04:19:40.458Z,51.27
2016-04-23T04:20:23.398Z,51.56
2016-04-23T04:21:06.354Z,51.75
2016-04-23T04:21:49.307Z,51.75
2016-04-23T04:22:32.279Z,51.75
2016-04-23T04:23:15.250Z,51.18
2016-04-23T04:23:58.203Z,51.93
2016-04-23T04:24:41.160Z,51.84
2016-04-23T04:25:24.099Z,51.75
2016-04-23T04:26:07.055Z,51.37
2016-04-23T04:26:49.993Z,51.93
2016-04-23T04:27:32.963Z,51.84
2016-04-23T04:28:15.904Z,51.56
2016-04-23T04:28:58.904Z,51.46
2016-04-23T04:29:41.860Z,51.84
2016-04-23T04:30:24.832Z,51.93
2016-04-23T04:31:07.788Z,52.03
2016-04-23T04:31:50.741Z,51.75
2016-04-23T04:32:33.696Z,51.84
2016-04-23T04:33:16.637Z,52.03
2016-04-23T04:33:59.590Z,51.75
2016-04-23T04:34:42.561Z,52.41
2016-04-23T04:35:25.501Z,52.03
2016-04-23T04:36:08.456Z,52.13
2016-04-23T04:36:51.409Z,51.93
2016-04-23T04:37:34.381Z,51.84
2016-04-23T04:38:17.337Z,52.13
2016-04-23T04:39:00.290Z,52.03
2016-04-23T04:39:43.293Z,51.84
2016-04-23T04:40:26.249Z,52.03
2016-04-23T04:41:09.205Z,52.03
2016-04-23T04:41:52.158Z,52.03
2016-04-23T04:42:35.098Z,52.22
2016-04-23T04:43:18.069Z,52.22
2016-04-23T04:44:01.006Z,51.75
2016-04-23T04:44:43.994Z,52.22
2016-04-23T04:45:26.950Z,52.41
2016-04-23T04:46:09.890Z,52.13
2016-04-23T04:46:52.844Z,52.03
2016-04-23T04:47:35.800Z,52.22
2016-04-23T04:48:18.755Z,52.32
2016-04-23T04:49:01.692Z,52.51
2016-04-23T04:49:44.711Z,52.13
2016-04-23T04:50:27.666Z,52.13
2016-04-23T04:51:10.997Z,51.84
2016-04-23T04:51:54.841Z,51.93
2016-04-23T04:52:37.890Z,52.13
2016-04-23T04:53:21.080Z,52.03
2016-04-23T04:54:04.018Z,52.51
2016-04-23T04:54:47.052Z,52.13
2016-04-23T04:55:30.039Z,52.03
2016-04-23T04:56:13.152Z,52.32
2016-04-23T04:56:56.214Z,52.13
2016-04-23T04:57:39.263Z,52.98
2016-04-23T04:58:22.282Z,52.22
2016-04-23T04:59:05.454Z,52.22
2016-04-23T04:59:48.518Z,52.32
2016-04-23T05:00:31.552Z,52.22
2016-04-23T05:01:14.618Z,52.41
2016-04-23T05:01:58.118Z,52.61
2016-04-23T05:02:41.121Z,52.61
2016-04-23T05:03:24.202Z,52.51
2016-04-23T05:04:07.251Z,53.08
2016-04-23T05:04:50.251Z,53.27
2016-04-23T05:05:33.348Z,53.27
2016-04-23T05:06:16.381Z,53.08
2016-04-23T05:06:59.443Z,52.8
2016-04-23T05:07:42.385Z,53.46
2016-04-23T05:08:25.495Z,53.17
2016-04-23T05:09:08.701Z,53.46
2016-04-23T05:09:51.889Z,53.17
2016-04-23T05:10:34.954Z,53.36
2016-04-23T05:11:17.817Z,53.55
2016-04-23T05:12:00.832Z,53.36
2016-04-23T05:12:43.928Z,53.27
2016-04-23T05:13:26.931Z,53.36
2016-04-23T05:14:10.200Z,53.27
2016-04-23T05:14:53.434Z,53.46
2016-04-23T05:15:35.953Z,53.27
2016-04-23T05:16:19.049Z,53.55
2016-04-23T05:17:02.361Z,53.65
2016-04-23T05:17:45.364Z,53.27
2016-04-23T05:18:28.601Z,53.55
2016-04-23T05:19:11.542Z,53.84
2016-04-23T05:19:54.526Z,53.75
2016-04-23T05:20:37.560Z,53.94
2016-04-23T05:21:20.891Z,53.84
2016-04-23T05:22:03.875Z,53.94
2016-04-23T05:22:46.986Z,54.13
2016-04-23T05:23:30.083Z,53.27
2016-04-23T05:24:13.179Z,53.94
2016-04-23T05:24:56.570Z,53.84
2016-04-23T05:25:39.541Z,54.13
2016-04-23T05:26:22.560Z,53.55
2016-04-23T05:27:05.701Z,53.94
2016-04-23T05:27:49.329Z,53.65
2016-04-23T05:28:32.457Z,53.65
2016-04-23T05:29:15.552Z,53.55
2016-04-23T05:29:58.615Z,53.75
2016-04-23T05:30:42.165Z,53.36
2016-04-23T05:31:28.307Z,53.84
2016-04-23T05:32:11.513Z,53.94
2016-04-23T05:32:54.545Z,53.08
2016-04-23T05:33:37.516Z,53.84
2016-04-23T05:34:20.582Z,53.65
2016-04-23T05:35:03.582Z,53.17
2016-04-23T05:35:46.553Z,53.46
2016-04-23T05:36:29.837Z,53.36
2016-04-23T05:37:13.387Z,53.55
2016-04-23T05:37:56.402Z,53.75
2016-04-23T05:38:39.842Z,53.84
2016-04-23T05:39:23.173Z,53.84
2016-04-23T05:40:06.298Z,53.65
2016-04-23T05:40:49.582Z,53.94
2016-04-23T05:41:32.726Z,53.65
2016-04-23T05:42:15.837Z,54.41
2016-04-23T05:42:59.103Z,53.94
2016-04-23T05:43:42.122Z,53.94
2016-04-23T05:44:25.906Z,54.22
2016-04-23T05:45:12.111Z,53.94
2016-04-23T05:45:55.533Z,54.22
2016-04-23T05:46:38.661Z,53.94
2016-04-23T05:47:20.991Z,54.03
2016-04-23T05:48:04.288Z,54.03
2016-04-23T05:48:47.589Z,53.94
2016-04-23T05:49:30.638Z,53.84
2016-04-23T05:50:13.781Z,53.94
2016-04-23T05:50:57.062Z,54.03
2016-04-23T05:51:40.128Z,53.84
2016-04-23T05:52:23.286Z,54.13
2016-04-23T05:53:06.567Z,53.75
2016-04-23T05:53:49.649Z,53.65
2016-04-23T05:54:32.963Z,53.46
2016-04-23T05:55:16.029Z,53.55
2016-04-23T05:55:59.247Z,53.55
2016-04-23T05:56:42.610Z,53.27
2016-04-23T05:57:25.893Z,53.27
2016-04-23T05:58:08.849Z,53.75
2016-04-23T05:58:51.818Z,54.22
2016-04-23T05:59:34.743Z,53.94
2016-04-23T06:00:17.714Z,53.27
2016-04-23T06:01:00.668Z,53.36
2016-04-23T06:01:43.670Z,53.55
2016-04-23T06:02:26.610Z,53.36
2016-04-23T06:03:09.581Z,53.55
2016-04-23T06:03:52.518Z,53.36
2016-04-23T06:04:35.491Z,53.55
2016-04-23T06:05:18.446Z,52.98
2016-04-23T06:06:01.431Z,53.27
2016-04-23T06:06:44.246Z,53.27
2016-04-23T06:07:27.265Z,52.98
2016-04-23T06:08:10.220Z,53.17
2016-04-23T06:08:53.298Z,53.08
2016-04-23T06:09:36.535Z,53.27
2016-04-23T06:10:19.522Z,52.89
2016-04-23T06:11:02.444Z,53.2
2016-04-23T06:11:46.431Z,53.2
2016-04-23T06:12:30.043Z,53.2
2016-04-23T06:13:12.873Z,52.34
2016-04-23T06:13:56.577Z,52.72
2016-04-23T06:14:39.626Z,52.82
2016-04-23T06:15:22.817Z,52.25
2016-04-23T06:16:05.973Z,52.25
2016-04-23T06:16:49.211Z,52.25
2016-04-23T06:17:32.338Z,52.25
2016-04-23T06:18:15.481Z,52.34
2016-04-23T06:18:58.716Z,52.41
2016-04-23T06:19:42.218Z,52.25
2016-04-23T06:20:25.206Z,52.92
2016-04-23T06:21:09.178Z,52.72
2016-04-23T06:21:52.350Z,52.41
2016-04-23T06:22:35.492Z,52.22
2016-04-23T06:23:18.636Z,51.93
2016-04-23T06:24:01.714Z,52.25
2016-04-23T06:24:44.653Z,52.34
2016-04-23T06:25:27.610Z,52.63
2016-04-23T06:26:10.580Z,52.61
2016-04-23T06:26:53.565Z,52.53
2016-04-23T06:27:36.505Z,53.27
2016-04-23T06:28:19.477Z,53.17
2016-04-23T06:29:02.414Z,53.55
2016-04-23T06:29:45.386Z,53.46
2016-04-23T06:30:28.341Z,53.36
2016-04-23T06:31:11.297Z,54.03
2016-04-23T06:31:54.251Z,53.17
2016-04-23T06:32:37.222Z,54.03
2016-04-23T06:33:20.052Z,53.84
2016-04-23T06:34:03.037Z,53.55
2016-04-23T06:34:45.993Z,53.55
2016-04-23T06:35:28.932Z,53.94
2016-04-23T06:36:11.905Z,54.22
2016-04-23T06:36:54.858Z,54.03
2016-04-23T06:37:37.830Z,53.84
2016-04-23T06:38:20.785Z,54.13
2016-04-23T06:39:03.738Z,53.65
2016-04-23T06:39:46.679Z,53.55
2016-04-23T06:40:29.650Z,53.17
2016-04-23T06:41:11.840Z,53.27
2016-04-23T06:41:54.793Z,53.65
2016-04-23T06:42:37.748Z,52.8
2016-04-23T06:43:20.720Z,53.08
2016-04-23T06:44:02.892Z,53.46
2016-04-23T06:44:45.848Z,53.46
2016-04-23T06:45:28.789Z,53.36
2016-04-23T06:46:12.009Z,53.36
2016-04-23T06:46:54.962Z,53.49
2016-04-23T06:47:37.934Z,53.39
2016-04-23T06:48:20.906Z,52.72
2016-04-23T06:49:03.859Z,53.01
2016-04-23T06:49:46.799Z,53.67
2016-04-23T06:50:29.770Z,53.58
2016-04-23T06:51:12.725Z,53.49
2016-04-23T06:51:55.679Z,53.2
2016-04-23T06:52:38.636Z,53.39
2016-04-23T06:53:21.592Z,53.58
2016-04-23T06:54:04.545Z,53.77
2016-04-23T06:54:47.484Z,53.67
2016-04-23T06:55:30.441Z,53.39
2016-04-23T06:56:13.411Z,53.39
2016-04-23T06:56:56.380Z,53.2
2016-04-23T06:57:39.321Z,52.25
2016-04-23T06:58:22.308Z,51.87
2016-04-23T06:59:05.074Z,51.87
2016-04-23T06:59:48.029Z,51.78
2016-04-23T07:00:30.985Z,51.49
2016-04-23T07:01:13.972Z,51.49
2016-04-23T07:01:56.910Z,51.78
2016-04-23T07:02:39.913Z,51.68
2016-04-23T07:03:22.899Z,51.1
2016-04-23T07:04:05.868Z,51.87
2016-04-23T07:04:48.840Z,51.49
2016-04-23T07:05:31.795Z,51.78
2016-04-23T07:06:14.829Z,51.39
2016-04-23T07:06:57.891Z,51.01
2016-04-23T07:07:41.440Z,50.92
2016-04-23T07:08:24.366Z,50.92
2016-04-23T07:09:07.054Z,51.01
2016-04-23T07:09:50.041Z,50.92
2016-04-23T07:10:32.981Z,50.25
2016-04-23T07:11:15.952Z,50.15
2016-04-23T07:11:58.890Z,50.63
2016-04-23T07:12:41.845Z,50.63
2016-04-23T07:13:24.817Z,50.35
2016-04-23T07:14:07.770Z,50.15
2016-04-23T07:14:50.726Z,50.35
2016-04-23T07:15:33.697Z,49.87
2016-04-23T07:16:16.653Z,50.06
2016-04-23T07:16:59.606Z,50.25
2016-04-23T07:17:42.562Z,50.37
2016-04-23T07:18:25.534Z,50.37
2016-04-23T07:19:09.237Z,50.09
2016-04-23T07:19:52.255Z,50.18
2016-04-23T07:20:35.211Z,50.25
2016-04-23T07:21:18.166Z,49.51
2016-04-23T07:22:01.135Z,49.58
2016-04-23T07:22:43.669Z,49.96
2016-04-23T07:23:26.656Z,50.09
2016-04-23T07:24:09.625Z,49.61
2016-04-23T07:24:52.597Z,49.58
2016-04-23T07:25:35.552Z,49.49
2016-04-23T07:26:18.508Z,50.25
2016-04-23T07:27:01.461Z,49.87
2016-04-23T07:27:44.432Z,50.63
2016-04-23T07:28:27.404Z,50.15
2016-04-23T07:29:10.341Z,51.1
2016-04-23T07:29:53.313Z,51.2
2016-04-23T07:30:36.269Z,51.78
2016-04-23T07:31:19.224Z,51.78
2016-04-23T07:32:02.177Z,51.78
2016-04-23T07:32:45.180Z,51.87
2016-04-23T07:33:28.636Z,52.53
2016-04-23T07:34:11.482Z,52.25
2016-04-23T07:34:54.404Z,53.01
2016-04-23T07:35:37.391Z,53.01
2016-04-23T07:36:22.457Z,53.2
2016-04-23T07:37:05.269Z,54.15
2016-04-23T07:37:48.210Z,54.15
2016-04-23T07:38:31.165Z,54.82
2016-04-23T07:39:14.121Z,55.39
2016-04-23T07:39:57.074Z,54.91
2016-04-23T07:40:40.014Z,55.01
2016-04-23T07:41:23.017Z,54.53
2016-04-23T07:42:05.955Z,54.72
2016-04-23T07:42:48.955Z,55.2
2016-04-23T07:43:31.940Z,55.2
2016-04-23T07:44:14.799Z,55.49
2016-04-23T07:44:57.752Z,55.58
2016-04-23T07:45:40.783Z,56.51
2016-04-23T07:46:23.745Z,56.41
2016-04-23T07:47:06.729Z,57.36
2016-04-23T07:47:49.702Z,57.65
2016-04-23T07:48:32.689Z,57.84
2016-04-23T07:49:15.505Z,57.26
2016-04-23T07:49:58.443Z,57.74
2016-04-23T07:50:41.430Z,57.84
2016-04-23T07:51:24.410Z,57.65
2016-04-23T07:52:07.379Z,57.26
2016-04-23T07:52:50.324Z,57.74
2016-04-23T07:53:33.302Z,57.74
2016-04-23T07:54:16.248Z,57.36
2016-04-23T07:54:59.216Z,57.65
2016-04-23T07:55:42.178Z,57.74
2016-04-23T07:56:25.137Z,57.36
2016-04-23T07:57:08.105Z,57.45
2016-04-23T07:57:51.064Z,56.79
2016-04-23T07:58:34.053Z,57.36
2016-04-23T07:59:17.010Z,57.26
2016-04-23T07:59:59.979Z,57.84
2016-04-23T08:00:42.937Z,57.45
2016-04-23T08:01:25.893Z,57.65
2016-04-23T08:02:08.862Z,58.22
2016-04-23T08:02:52.349Z,58.4
2016-04-23T08:03:35.198Z,57.84
2016-04-23T08:04:17.998Z,57.55
2016-04-23T08:05:00.951Z,57.26
2016-04-23T08:05:43.877Z,57.74
2016-04-23T08:06:26.691Z,57.26
2016-04-23T08:07:09.644Z,57.36
2016-04-23T08:07:52.617Z,57.17
2016-04-23T08:08:35.589Z,57.36
2016-04-23T08:09:18.544Z,57.29
2016-04-23T08:10:01.482Z,57.29
2016-04-23T08:10:44.439Z,57.39
2016-04-23T08:11:27.394Z,56.63
2016-04-23T08:12:10.378Z,56.53
2016-04-23T08:12:53.350Z,55.2
2016-04-23T08:13:35.509Z,55.29
2016-04-23T08:14:18.465Z,54.75
2016-04-23T08:15:01.434Z,53.7
2016-04-23T08:15:44.389Z,51.99
2016-04-23T08:16:29.220Z,52.09
2016-04-23T08:17:12.191Z,52.01
2016-04-23T08:17:55.175Z,51.64
2016-04-23T08:18:38.133Z,52.11
2016-04-23T08:19:20.947Z,52.04
2016-04-23T08:20:03.916Z,49.56
2016-04-23T08:20:46.902Z,48.32
2016-04-23T08:21:29.843Z,50.32
2016-04-23T08:22:12.658Z,47.85
2016-04-23T08:22:55.596Z,50.16
2016-04-23T08:23:38.567Z,46.73
2016-04-23T08:24:21.538Z,45.49
2016-04-23T08:25:03.710Z,45.01
2016-04-23T08:25:46.698Z,44.73
2016-04-23T08:26:29.638Z,44.74
2016-04-23T08:27:12.594Z,45.03
2016-04-23T08:27:55.547Z,44.56
2016-04-23T08:28:38.518Z,43.22
2016-04-23T08:29:21.666Z,42.17
2016-04-23T08:30:04.526Z,41.88
2016-04-23T08:30:47.481Z,40.76
2016-04-23T08:31:33.047Z,39.71
2016-04-23T08:32:16.034Z,39.42
2016-04-23T08:32:59.018Z,39.23
2016-04-23T08:33:41.959Z,38.76
2016-04-23T08:34:24.961Z,38.56
2016-04-23T08:35:08.023Z,37.99
2016-04-23T08:35:51.011Z,37.9
2016-04-23T08:36:37.701Z,38.56
2016-04-23T08:37:20.656Z,38.66
2016-04-23T08:38:03.594Z,38.76
2016-04-23T08:38:46.551Z,38.56
2016-04-23T08:39:29.522Z,38.66
2016-04-23T08:40:12.522Z,38.18
2016-04-23T08:40:56.336Z,37.42
2016-04-23T08:41:39.715Z,37.99
2016-04-23T08:42:22.670Z,38.56
2016-04-23T08:43:05.623Z,38.09
2016-04-23T08:43:48.594Z,37.61
2016-04-23T08:44:31.395Z,37.42
2016-04-23T08:45:14.426Z,37.61
2016-04-23T08:45:58.725Z,37.32
2016-04-23T08:46:42.305Z,36.94
2016-04-23T08:47:25.277Z,36.85
2016-04-23T08:48:08.277Z,37.61
2016-04-23T08:48:51.531Z,37.42
2016-04-23T08:49:34.189Z,37.61
2016-04-23T08:50:17.160Z,37.32
2016-04-23T08:51:01.551Z,37.71
2016-04-23T08:51:44.383Z,37.9
2016-04-23T08:52:27.650Z,38.56
2016-04-23T08:53:11.025Z,38.45
2016-04-23T08:53:54.012Z,38.54
2016-04-23T08:54:37.155Z,39.69
2016-04-23T08:55:20.127Z,41.22
2016-04-23T08:56:04.533Z,41.69
2016-04-23T08:56:47.474Z,43.2
2016-04-23T08:57:30.586Z,43.68
2016-04-23T08:58:13.633Z,43.87
2016-04-23T08:58:56.791Z,44.44
2016-04-23T08:59:39.888Z,44.25
2016-04-23T09:00:22.906Z,44.92
2016-04-23T09:01:05.765Z,45.2
2016-04-23T09:01:48.752Z,45.49
2016-04-23T09:02:31.709Z,45.87
2016-04-23T09:03:14.693Z,46.15
2016-04-23T09:03:57.476Z,45.87
2016-04-23T09:04:40.448Z,45.28
2016-04-23T09:05:23.420Z,45.47
2016-04-23T09:06:06.388Z,45.84
2016-04-23T09:06:49.438Z,45.65
2016-04-23T09:07:32.565Z,46.13
2016-04-23T09:08:15.550Z,46.04
2016-04-23T09:08:58.506Z,47.18
2016-04-23T09:09:41.477Z,47.28
2016-04-23T09:10:24.448Z,47.06
2016-04-23T09:11:07.401Z,48.04
2016-04-23T09:11:50.186Z,47.56
2016-04-23T09:12:33.142Z,48.04
2016-04-23T09:13:16.126Z,47.28
2016-04-23T09:13:59.066Z,47.37
2016-04-23T09:14:42.053Z,45.47
2016-04-23T09:15:25.009Z,45.49